sensor_id;sensor_type;location;lat;lon;timestamp;pressure;altitude;pressure_sealevel;temperature;humidity
78986;BME280;68384;55.750;48.746;2023-07-30T00:00:52;97999.00;;;19.30;76.31
78986;BME280;68384;55.750;48.746;2023-07-30T00:01:56;97979.28;;;19.15;76.10
78986;BME280;68384;55.750;48.746;2023-07-30T00:02:59;97993.03;;;19.23;76.49
78986;BME280;68384;55.750;48.746;2023-07-30T00:04:04;97993.88;;;19.25;76.29
78986;BME280;68384;55.750;48.746;2023-07-30T00:05:07;97991.31;;;19.22;76.18
78986;BME280;68384;55.750;48.746;2023-07-30T00:06:11;97997.50;;;19.21;76.44
78986;BME280;68384;55.750;48.746;2023-07-30T00:07:14;97994.00;;;19.21;76.54
78986;BME280;68384;55.750;48.746;2023-07-30T00:08:18;97988.84;;;19.18;76.52
78986;BME280;68384;55.750;48.746;2023-07-30T00:09:21;97984.44;;;19.18;76.70
78986;BME280;68384;55.750;48.746;2023-07-30T00:10:25;97985.34;;;19.17;76.98
78986;BME280;68384;55.750;48.746;2023-07-30T00:11:27;97981.03;;;19.16;76.82
78986;BME280;68384;55.750;48.746;2023-07-30T00:12:31;97986.28;;;19.16;76.97
78986;BME280;68384;55.750;48.746;2023-07-30T00:13:34;97981.03;;;19.16;77.33
78986;BME280;68384;55.750;48.746;2023-07-30T00:14:38;97986.28;;;19.16;76.96
78986;BME280;68384;55.750;48.746;2023-07-30T00:15:41;97985.44;;;19.14;77.45
78986;BME280;68384;55.750;48.746;2023-07-30T00:16:45;97990.75;;;19.13;77.44
78986;BME280;68384;55.750;48.746;2023-07-30T00:17:48;97989.97;;;19.09;77.32
78986;BME280;68384;55.750;48.746;2023-07-30T00:18:52;97980.34;;;19.09;77.56
78986;BME280;68384;55.750;48.746;2023-07-30T00:19:56;97984.81;;;19.06;77.82
78986;BME280;68384;55.750;48.746;2023-07-30T00:21:00;97990.06;;;19.06;77.47
78986;BME280;68384;55.750;48.746;2023-07-30T00:22:03;97986.63;;;19.04;77.62
78986;BME280;68384;55.750;48.746;2023-07-30T00:23:07;97990.13;;;19.04;77.72
78986;BME280;68384;55.750;48.746;2023-07-30T00:24:10;97988.41;;;19.03;77.93
78986;BME280;68384;55.750;48.746;2023-07-30T00:25:14;97981.38;;;19.04;77.90
78986;BME280;68384;55.750;48.746;2023-07-30T00:26:16;97991.91;;;19.04;78.39
78986;BME280;68384;55.750;48.746;2023-07-30T00:27:20;97991.03;;;19.03;77.86
78986;BME280;68384;55.750;48.746;2023-07-30T00:28:25;97994.59;;;19.02;78.17
78986;BME280;68384;55.750;48.746;2023-07-30T00:29:29;97994.59;;;19.02;78.39
78986;BME280;68384;55.750;48.746;2023-07-30T00:30:32;97994.59;;;19.02;78.63
78986;BME280;68384;55.750;48.746;2023-07-30T00:31:36;97990.22;;;19.01;78.32
78986;BME280;68384;55.750;48.746;2023-07-30T00:32:40;97988.50;;;19.00;78.55
78986;BME280;68384;55.750;48.746;2023-07-30T00:33:47;97991.13;;;19.00;78.55
78986;BME280;68384;55.750;48.746;2023-07-30T00:34:51;97997.31;;;18.99;78.58
78986;BME280;68384;55.750;48.746;2023-07-30T00:35:55;97995.63;;;18.97;78.85
78986;BME280;68384;55.750;48.746;2023-07-30T00:36:59;97995.50;;;19.00;78.85
78986;BME280;68384;55.750;48.746;2023-07-30T00:38:02;98004.25;;;19.00;78.40
78986;BME280;68384;55.750;48.746;2023-07-30T00:39:06;98000.75;;;19.00;78.87
78986;BME280;68384;55.750;48.746;2023-07-30T00:40:09;97991.97;;;19.01;78.59
78986;BME280;68384;55.750;48.746;2023-07-30T00:41:13;97983.31;;;18.99;78.35
78986;BME280;68384;55.750;48.746;2023-07-30T00:42:16;97991.97;;;19.01;78.66
78986;BME280;68384;55.750;48.746;2023-07-30T00:43:20;97993.72;;;19.02;78.54
78986;BME280;68384;55.750;48.746;2023-07-30T00:44:23;97994.66;;;18.99;78.70
78986;BME280;68384;55.750;48.746;2023-07-30T00:45:27;97989.41;;;18.99;78.53
78986;BME280;68384;55.750;48.746;2023-07-30T00:46:30;97988.50;;;19.00;78.32
78986;BME280;68384;55.750;48.746;2023-07-30T00:47:35;97987.59;;;19.01;78.77
78986;BME280;68384;55.750;48.746;2023-07-30T00:48:38;97988.50;;;19.00;78.24
78986;BME280;68384;55.750;48.746;2023-07-30T00:49:43;97990.25;;;19.00;78.60
78986;BME280;68384;55.750;48.746;2023-07-30T00:50:46;97989.34;;;19.01;78.94
78986;BME280;68384;55.750;48.746;2023-07-30T00:51:52;97987.69;;;18.98;78.59
78986;BME280;68384;55.750;48.746;2023-07-30T00:52:55;97984.19;;;18.98;78.54
78986;BME280;68384;55.750;48.746;2023-07-30T00:53:59;97984.16;;;18.99;78.35
78986;BME280;68384;55.750;48.746;2023-07-30T00:55:02;97985.88;;;19.00;78.69
78986;BME280;68384;55.750;48.746;2023-07-30T00:56:07;97988.50;;;19.00;78.95
78986;BME280;68384;55.750;48.746;2023-07-30T00:57:10;97990.22;;;19.01;78.53
78986;BME280;68384;55.750;48.746;2023-07-30T00:58:15;97990.22;;;19.01;78.66
78986;BME280;68384;55.750;48.746;2023-07-30T00:59:18;97989.41;;;18.99;78.97
78986;BME280;68384;55.750;48.746;2023-07-30T01:00:23;97986.81;;;18.98;79.32
78986;BME280;68384;55.750;48.746;2023-07-30T01:01:26;97987.69;;;18.98;79.08
78986;BME280;68384;55.750;48.746;2023-07-30T01:02:31;97983.41;;;18.96;79.29
78986;BME280;68384;55.750;48.746;2023-07-30T01:03:34;97984.25;;;18.96;79.38
78986;BME280;68384;55.750;48.746;2023-07-30T01:04:39;97988.66;;;18.96;79.71
78986;BME280;68384;55.750;48.746;2023-07-30T01:05:43;97982.53;;;18.95;79.86
78986;BME280;68384;55.750;48.746;2023-07-30T01:06:47;97981.66;;;18.95;79.72
78986;BME280;68384;55.750;48.746;2023-07-30T01:07:52;97980.91;;;18.91;79.65
78986;BME280;68384;55.750;48.746;2023-07-30T01:08:56;97974.66;;;18.95;79.35
78986;BME280;68384;55.750;48.746;2023-07-30T01:09:59;97976.41;;;18.95;79.31
78986;BME280;68384;55.750;48.746;2023-07-30T01:11:07;97975.56;;;18.94;79.47
78986;BME280;68384;55.750;48.746;2023-07-30T01:12:11;97972.88;;;18.96;79.67
78986;BME280;68384;55.750;48.746;2023-07-30T01:13:17;97978.16;;;18.96;79.33
78986;BME280;68384;55.750;48.746;2023-07-30T01:14:20;97984.25;;;18.96;79.81
78986;BME280;68384;55.750;48.746;2023-07-30T01:15:24;97971.22;;;18.93;79.60
78986;BME280;68384;55.750;48.746;2023-07-30T01:16:27;97980.78;;;18.96;79.44
78986;BME280;68384;55.750;48.746;2023-07-30T01:17:32;97973.75;;;18.96;79.97
78986;BME280;68384;55.750;48.746;2023-07-30T01:18:35;97976.38;;;18.96;79.46
78986;BME280;68384;55.750;48.746;2023-07-30T01:19:39;97976.38;;;18.96;80.10
78986;BME280;68384;55.750;48.746;2023-07-30T01:20:41;97981.56;;;18.98;79.60
78986;BME280;68384;55.750;48.746;2023-07-30T01:21:46;97972.88;;;18.96;79.55
78986;BME280;68384;55.750;48.746;2023-07-30T01:22:50;97978.94;;;18.98;80.10
78986;BME280;68384;55.750;48.746;2023-07-30T01:23:53;97978.16;;;18.96;80.24
78986;BME280;68384;55.750;48.746;2023-07-30T01:24:57;97977.25;;;18.97;80.20
78986;BME280;68384;55.750;48.746;2023-07-30T01:26:04;97978.16;;;18.96;80.00
78986;BME280;68384;55.750;48.746;2023-07-30T01:27:16;97977.25;;;18.97;80.29
78986;BME280;68384;55.750;48.746;2023-07-30T01:28:22;97981.56;;;18.98;79.78
78986;BME280;68384;55.750;48.746;2023-07-30T01:29:29;97985.13;;;18.97;79.81
78986;BME280;68384;55.750;48.746;2023-07-30T01:30:39;97982.44;;;18.98;79.79
78986;BME280;68384;55.750;48.746;2023-07-30T01:31:47;97979.81;;;18.98;80.09
78986;BME280;68384;55.750;48.746;2023-07-30T01:32:53;97979.75;;;19.00;79.60
78986;BME280;68384;55.750;48.746;2023-07-30T01:33:57;97981.47;;;19.01;79.71
78986;BME280;68384;55.750;48.746;2023-07-30T01:35:02;97985.84;;;19.02;79.53
78986;BME280;68384;55.750;48.746;2023-07-30T01:36:08;97984.91;;;19.03;80.03
78986;BME280;68384;55.750;48.746;2023-07-30T01:37:15;97981.47;;;19.01;80.11
78986;BME280;68384;55.750;48.746;2023-07-30T01:38:19;97981.38;;;19.04;80.06
78986;BME280;68384;55.750;48.746;2023-07-30T01:39:24;97984.00;;;19.04;79.94
78986;BME280;68384;55.750;48.746;2023-07-30T01:40:27;97983.22;;;19.02;80.11
78986;BME280;68384;55.750;48.746;2023-07-30T01:41:32;97984.00;;;19.04;80.04
78986;BME280;68384;55.750;48.746;2023-07-30T01:42:35;97983.22;;;19.02;79.93
78986;BME280;68384;55.750;48.746;2023-07-30T01:43:38;97985.75;;;19.05;79.85
78986;BME280;68384;55.750;48.746;2023-07-30T01:44:42;97989.22;;;19.05;80.21
78986;BME280;68384;55.750;48.746;2023-07-30T01:45:44;97988.41;;;19.03;80.31
78986;BME280;68384;55.750;48.746;2023-07-30T01:46:48;97983.13;;;19.05;79.68
78986;BME280;68384;55.750;48.746;2023-07-30T01:47:51;97984.81;;;19.06;79.69
78986;BME280;68384;55.750;48.746;2023-07-30T01:48:55;97988.31;;;19.06;80.12
78986;BME280;68384;55.750;48.746;2023-07-30T01:49:58;97977.00;;;19.04;80.34
78986;BME280;68384;55.750;48.746;2023-07-30T01:51:03;97983.06;;;19.06;79.90
78986;BME280;68384;55.750;48.746;2023-07-30T01:52:06;97983.03;;;19.08;80.14
78986;BME280;68384;55.750;48.746;2023-07-30T01:53:12;97985.59;;;19.09;79.76
78986;BME280;68384;55.750;48.746;2023-07-30T01:54:14;97982.91;;;19.11;79.64
78986;BME280;68384;55.750;48.746;2023-07-30T01:55:18;97981.09;;;19.13;79.76
78986;BME280;68384;55.750;48.746;2023-07-30T01:56:21;97982.72;;;19.17;79.77
78986;BME280;68384;55.750;48.746;2023-07-30T01:57:25;97986.16;;;19.19;79.56
78986;BME280;68384;55.750;48.746;2023-07-30T01:58:28;97979.97;;;19.22;79.34
78986;BME280;68384;55.750;48.746;2023-07-30T01:59:32;97982.47;;;19.26;79.57
78986;BME280;68384;55.750;48.746;2023-07-30T02:00:35;97977.22;;;19.26;79.24
78986;BME280;68384;55.750;48.746;2023-07-30T02:01:39;97988.44;;;19.31;79.35
78986;BME280;68384;55.750;48.746;2023-07-30T02:02:42;97991.81;;;19.35;79.09
78986;BME280;68384;55.750;48.746;2023-07-30T02:03:46;97991.72;;;19.38;79.09
78986;BME280;68384;55.750;48.746;2023-07-30T02:04:49;97993.34;;;19.42;78.90
78986;BME280;68384;55.750;48.746;2023-07-30T02:05:53;97981.00;;;19.44;78.63
78986;BME280;68384;55.750;48.746;2023-07-30T02:06:56;97986.16;;;19.47;78.55
78986;BME280;68384;55.750;48.746;2023-07-30T02:08:00;97982.56;;;19.49;78.78
78986;BME280;68384;55.750;48.746;2023-07-30T02:09:07;97979.91;;;19.51;78.46
78986;BME280;68384;55.750;48.746;2023-07-30T02:10:11;97975.44;;;19.53;78.88
78986;BME280;68384;55.750;48.746;2023-07-30T02:11:14;97984.00;;;19.59;78.29
78986;BME280;68384;55.750;48.746;2023-07-30T02:12:17;97979.53;;;19.61;78.55
78986;BME280;68384;55.750;48.746;2023-07-30T02:13:20;97982.09;;;19.63;78.58
78986;BME280;68384;55.750;48.746;2023-07-30T02:14:25;97978.53;;;19.65;78.40
78986;BME280;68384;55.750;48.746;2023-07-30T02:15:28;97963.88;;;19.58;78.37
78986;BME280;68384;55.750;48.746;2023-07-30T02:16:32;97986.28;;;19.68;78.06
78986;BME280;68384;55.750;48.746;2023-07-30T02:17:35;97987.97;;;19.71;78.42
78986;BME280;68384;55.750;48.746;2023-07-30T02:18:39;97989.69;;;19.72;77.95
78986;BME280;68384;55.750;48.746;2023-07-30T02:19:42;97983.56;;;19.72;77.72
78986;BME280;68384;55.750;48.746;2023-07-30T02:20:46;97987.84;;;19.74;77.81
78986;BME280;68384;55.750;48.746;2023-07-30T02:21:49;97995.66;;;19.77;77.94
78986;BME280;68384;55.750;48.746;2023-07-30T02:22:53;97985.09;;;19.79;77.36
78986;BME280;68384;55.750;48.746;2023-07-30T02:23:56;97978.09;;;19.78;77.49
78986;BME280;68384;55.750;48.746;2023-07-30T02:25:02;97992.88;;;19.82;77.68
78986;BME280;68384;55.750;48.746;2023-07-30T02:26:05;97985.00;;;19.82;77.54
78986;BME280;68384;55.750;48.746;2023-07-30T02:27:09;97972.75;;;19.81;77.37
78986;BME280;68384;55.750;48.746;2023-07-30T02:28:12;97968.38;;;19.80;77.44
78986;BME280;68384;55.750;48.746;2023-07-30T02:29:16;97971.88;;;19.80;77.22
78986;BME280;68384;55.750;48.746;2023-07-30T02:30:19;97970.97;;;19.81;77.37
78986;BME280;68384;55.750;48.746;2023-07-30T02:31:23;97968.38;;;19.80;77.40
78986;BME280;68384;55.750;48.746;2023-07-30T02:32:28;97963.13;;;19.80;77.39
78986;BME280;68384;55.750;48.746;2023-07-30T02:33:32;97959.66;;;19.79;77.19
78986;BME280;68384;55.750;48.746;2023-07-30T02:34:35;97956.09;;;19.80;77.48
78986;BME280;68384;55.750;48.746;2023-07-30T02:35:38;97959.53;;;19.82;77.49
78986;BME280;68384;55.750;48.746;2023-07-30T02:36:42;97967.41;;;19.82;77.10
78986;BME280;68384;55.750;48.746;2023-07-30T02:37:44;97962.06;;;19.85;77.28
78986;BME280;68384;55.750;48.746;2023-07-30T02:38:48;97960.19;;;19.89;77.13
78986;BME280;68384;55.750;48.746;2023-07-30T02:39:51;97954.94;;;19.89;77.17
78986;BME280;68384;55.750;48.746;2023-07-30T02:40:57;97960.94;;;19.92;76.93
78986;BME280;68384;55.750;48.746;2023-07-30T02:41:59;97952.09;;;19.95;76.56
78986;BME280;68384;55.750;48.746;2023-07-30T02:43:03;97952.09;;;19.95;76.43
78986;BME280;68384;55.750;48.746;2023-07-30T02:44:06;97951.97;;;19.98;76.42
78986;BME280;68384;55.750;48.746;2023-07-30T02:45:10;97955.31;;;20.03;76.64
78986;BME280;68384;55.750;48.746;2023-07-30T02:46:13;97952.56;;;20.06;76.68
78986;BME280;68384;55.750;48.746;2023-07-30T02:47:17;97954.25;;;20.08;76.22
78986;BME280;68384;55.750;48.746;2023-07-30T02:48:20;97950.69;;;20.09;76.42
78986;BME280;68384;55.750;48.746;2023-07-30T02:49:24;97957.66;;;20.12;76.39
78986;BME280;68384;55.750;48.746;2023-07-30T02:50:26;97950.59;;;20.12;76.33
78986;BME280;68384;55.750;48.746;2023-07-30T02:51:30;97947.06;;;20.13;75.86
78986;BME280;68384;55.750;48.746;2023-07-30T02:52:33;97949.63;;;20.15;75.65
78986;BME280;68384;55.750;48.746;2023-07-30T02:53:37;97940.81;;;20.16;75.49
78986;BME280;68384;55.750;48.746;2023-07-30T02:54:40;97949.41;;;20.21;75.47
78986;BME280;68384;55.750;48.746;2023-07-30T02:55:44;97949.25;;;20.25;75.36
78986;BME280;68384;55.750;48.746;2023-07-30T02:56:48;97936.94;;;20.26;75.31
78986;BME280;68384;55.750;48.746;2023-07-30T02:57:52;97944.56;;;20.34;75.34
78986;BME280;68384;55.750;48.746;2023-07-30T02:58:56;97941.69;;;20.40;74.89
78986;BME280;68384;55.750;48.746;2023-07-30T03:00:00;97939.00;;;20.41;74.76
78986;BME280;68384;55.750;48.746;2023-07-30T03:01:06;97938.66;;;20.50;74.90
78986;BME280;68384;55.750;48.746;2023-07-30T03:02:11;97937.50;;;20.57;74.67
78986;BME280;68384;55.750;48.746;2023-07-30T03:03:14;97936.44;;;20.63;73.93
78986;BME280;68384;55.750;48.746;2023-07-30T03:04:18;97940.41;;;20.73;74.28
78986;BME280;68384;55.750;48.746;2023-07-30T03:05:20;97950.53;;;20.83;74.01
78986;BME280;68384;55.750;48.746;2023-07-30T03:06:24;97950.31;;;20.90;73.47
78986;BME280;68384;55.750;48.746;2023-07-30T03:07:27;97951.19;;;20.90;73.16
78986;BME280;68384;55.750;48.746;2023-07-30T03:08:31;97952.84;;;20.93;72.63
78986;BME280;68384;55.750;48.746;2023-07-30T03:09:34;97955.34;;;20.96;72.86
78986;BME280;68384;55.750;48.746;2023-07-30T03:10:38;97954.31;;;21.00;72.94
78986;BME280;68384;55.750;48.746;2023-07-30T03:11:41;97950.66;;;21.04;72.67
78986;BME280;68384;55.750;48.746;2023-07-30T03:12:46;97953.09;;;21.08;72.50
78986;BME280;68384;55.750;48.746;2023-07-30T03:13:49;97955.59;;;21.11;72.71
78986;BME280;68384;55.750;48.746;2023-07-30T03:14:53;97965.03;;;21.17;72.56
78986;BME280;68384;55.750;48.746;2023-07-30T03:15:56;97964.72;;;21.24;72.53
78986;BME280;68384;55.750;48.746;2023-07-30T03:17:00;97955.53;;;21.34;72.55
78986;BME280;68384;55.750;48.746;2023-07-30T03:18:03;97958.66;;;21.44;72.14
78986;BME280;68384;55.750;48.746;2023-07-30T03:19:07;97954.78;;;21.53;71.54
78986;BME280;68384;55.750;48.746;2023-07-30T03:20:11;97955.22;;;21.64;71.86
78986;BME280;68384;55.750;48.746;2023-07-30T03:21:15;97954.75;;;21.74;71.61
78986;BME280;68384;55.750;48.746;2023-07-30T03:22:17;97961.34;;;21.84;71.02
78986;BME280;68384;55.750;48.746;2023-07-30T03:23:21;97962.03;;;21.89;70.24
78986;BME280;68384;55.750;48.746;2023-07-30T03:24:24;97965.97;;;21.99;70.29
78986;BME280;68384;55.750;48.746;2023-07-30T03:25:28;97961.34;;;22.05;70.21
78986;BME280;68384;55.750;48.746;2023-07-30T03:26:31;97966.38;;;22.11;69.68
78986;BME280;68384;55.750;48.746;2023-07-30T03:27:35;97973.09;;;22.18;69.31
78986;BME280;68384;55.750;48.746;2023-07-30T03:28:39;97971.09;;;22.23;69.55
78986;BME280;68384;55.750;48.746;2023-07-30T03:29:43;97964.00;;;22.25;69.10
78986;BME280;68384;55.750;48.746;2023-07-30T03:30:46;97966.69;;;22.23;68.43
78986;BME280;68384;55.750;48.746;2023-07-30T03:31:50;97956.06;;;22.25;68.08
78986;BME280;68384;55.750;48.746;2023-07-30T03:32:53;97971.91;;;22.25;68.13
78986;BME280;68384;55.750;48.746;2023-07-30T03:33:57;97960.34;;;22.27;68.03
78986;BME280;68384;55.750;48.746;2023-07-30T03:35:00;97963.78;;;22.29;68.53
78986;BME280;68384;55.750;48.746;2023-07-30T03:36:04;97957.56;;;22.30;67.90
78986;BME280;68384;55.750;48.746;2023-07-30T03:37:07;97960.91;;;22.34;68.01
78986;BME280;68384;55.750;48.746;2023-07-30T03:38:10;97950.31;;;22.35;67.76
78986;BME280;68384;55.750;48.746;2023-07-30T03:39:13;97962.41;;;22.41;67.35
78986;BME280;68384;55.750;48.746;2023-07-30T03:40:18;97964.78;;;22.47;67.58
78986;BME280;68384;55.750;48.746;2023-07-30T03:41:21;97969.75;;;22.53;67.42
78986;BME280;68384;55.750;48.746;2023-07-30T03:42:25;97961.50;;;22.61;67.44
78986;BME280;68384;55.750;48.746;2023-07-30T03:43:28;97963.69;;;22.70;67.10
78986;BME280;68384;55.750;48.746;2023-07-30T03:44:33;97961.66;;;22.76;66.80
78986;BME280;68384;55.750;48.746;2023-07-30T03:45:36;97957.63;;;22.86;66.84
78986;BME280;68384;55.750;48.746;2023-07-30T03:46:40;97958.00;;;22.97;66.47
78986;BME280;68384;55.750;48.746;2023-07-30T03:47:42;97969.19;;;23.02;65.67
78986;BME280;68384;55.750;48.746;2023-07-30T03:48:46;97966.16;;;23.11;65.89
78986;BME280;68384;55.750;48.746;2023-07-30T03:49:49;97965.00;;;23.17;65.29
78986;BME280;68384;55.750;48.746;2023-07-30T03:50:53;97966.34;;;23.26;65.18
78986;BME280;68384;55.750;48.746;2023-07-30T03:51:57;97971.50;;;23.29;65.73
78986;BME280;68384;55.750;48.746;2023-07-30T03:53:00;97971.16;;;23.35;65.43
78986;BME280;68384;55.750;48.746;2023-07-30T03:54:04;97970.00;;;23.40;64.78
78986;BME280;68384;55.750;48.746;2023-07-30T03:55:08;97964.53;;;23.45;64.74
78986;BME280;68384;55.750;48.746;2023-07-30T03:56:10;97972.06;;;23.52;64.23
78986;BME280;68384;55.750;48.746;2023-07-30T03:57:15;97975.34;;;23.57;64.00
78986;BME280;68384;55.750;48.746;2023-07-30T03:58:17;97977.75;;;23.62;63.90
78986;BME280;68384;55.750;48.746;2023-07-30T03:59:21;97976.53;;;23.69;63.96
78986;BME280;68384;55.750;48.746;2023-07-30T04:00:25;97959.47;;;23.57;63.71
78986;BME280;68384;55.750;48.746;2023-07-30T04:01:31;97978.22;;;23.70;63.55
78986;BME280;68384;55.750;48.746;2023-07-30T04:02:33;97978.56;;;23.64;63.48
78986;BME280;68384;55.750;48.746;2023-07-30T04:03:37;97980.56;;;23.59;63.16
78986;BME280;68384;55.750;48.746;2023-07-30T04:04:40;97982.34;;;23.58;62.84
78986;BME280;68384;55.750;48.746;2023-07-30T04:05:44;97985.28;;;23.52;63.61
78986;BME280;68384;55.750;48.746;2023-07-30T04:06:47;97989.25;;;23.44;63.48
78986;BME280;68384;55.750;48.746;2023-07-30T04:07:51;97984.25;;;23.38;63.81
78986;BME280;68384;55.750;48.746;2023-07-30T04:08:54;97986.97;;;23.36;64.15
78986;BME280;68384;55.750;48.746;2023-07-30T04:09:57;97982.75;;;23.32;64.26
78986;BME280;68384;55.750;48.746;2023-07-30T04:11:00;97978.47;;;23.30;64.29
78986;BME280;68384;55.750;48.746;2023-07-30T04:12:05;97971.56;;;23.27;64.04
78986;BME280;68384;55.750;48.746;2023-07-30T04:13:07;97968.91;;;23.27;64.09
78986;BME280;68384;55.750;48.746;2023-07-30T04:14:11;97964.47;;;23.28;64.15
78986;BME280;68384;55.750;48.746;2023-07-30T04:15:14;97970.69;;;23.27;64.61
78986;BME280;68384;55.750;48.746;2023-07-30T04:16:20;97966.97;;;23.31;64.35
78986;BME280;68384;55.750;48.746;2023-07-30T04:17:23;97968.53;;;23.35;64.59
78986;BME280;68384;55.750;48.746;2023-07-30T04:18:27;97947.38;;;23.35;64.54
78986;BME280;68384;55.750;48.746;2023-07-30T04:19:30;97961.06;;;23.43;64.15
78986;BME280;68384;55.750;48.746;2023-07-30T04:20:34;97970.59;;;23.47;63.81
78986;BME280;68384;55.750;48.746;2023-07-30T04:21:37;97963.38;;;23.50;63.97
78986;BME280;68384;55.750;48.746;2023-07-30T04:22:42;97958.69;;;23.55;63.32
78986;BME280;68384;55.750;48.746;2023-07-30T04:23:45;97957.75;;;23.56;63.23
78986;BME280;68384;55.750;48.746;2023-07-30T04:24:49;97962.06;;;23.59;63.27
78986;BME280;68384;55.750;48.746;2023-07-30T04:25:52;97966.53;;;23.57;63.05
78986;BME280;68384;55.750;48.746;2023-07-30T04:26:55;97967.84;;;23.48;62.79
78986;BME280;68384;55.750;48.746;2023-07-30T04:27:58;97966.94;;;23.49;62.77
78986;BME280;68384;55.750;48.746;2023-07-30T04:29:03;97960.88;;;23.47;62.79
78986;BME280;68384;55.750;48.746;2023-07-30T04:30:06;97959.22;;;23.45;63.19
78986;BME280;68384;55.750;48.746;2023-07-30T04:31:10;97957.50;;;23.44;63.44
78986;BME280;68384;55.750;48.746;2023-07-30T04:32:15;97959.38;;;23.42;63.78
78986;BME280;68384;55.750;48.746;2023-07-30T04:33:18;97966.22;;;23.46;63.88
78986;BME280;68384;55.750;48.746;2023-07-30T04:34:22;97962.56;;;23.48;63.77
78986;BME280;68384;55.750;48.746;2023-07-30T04:35:25;97954.56;;;23.50;62.99
78986;BME280;68384;55.750;48.746;2023-07-30T04:36:29;97946.63;;;23.50;63.24
78986;BME280;68384;55.750;48.746;2023-07-30T04:37:32;97954.47;;;23.51;62.84
78986;BME280;68384;55.750;48.746;2023-07-30T04:38:37;97947.50;;;23.50;63.55
78986;BME280;68384;55.750;48.746;2023-07-30T04:39:39;97950.13;;;23.50;63.18
78986;BME280;68384;55.750;48.746;2023-07-30T04:40:43;97947.41;;;23.52;62.94
78986;BME280;68384;55.750;48.746;2023-07-30T04:41:48;97939.72;;;23.47;63.03
78986;BME280;68384;55.750;48.746;2023-07-30T04:42:52;97943.41;;;23.43;63.00
78986;BME280;68384;55.750;48.746;2023-07-30T04:43:55;97932.94;;;23.42;63.44
78986;BME280;68384;55.750;48.746;2023-07-30T04:45:02;97925.28;;;23.36;63.57
78986;BME280;68384;55.750;48.746;2023-07-30T04:46:06;97940.16;;;23.38;63.67
78986;BME280;68384;55.750;48.746;2023-07-30T04:47:11;97947.84;;;23.43;63.78
78986;BME280;68384;55.750;48.746;2023-07-30T04:48:15;97939.91;;;23.43;63.66
78986;BME280;68384;55.750;48.746;2023-07-30T04:49:19;97950.28;;;23.47;63.67
78986;BME280;68384;55.750;48.746;2023-07-30T04:50:22;97950.03;;;23.52;64.06
78986;BME280;68384;55.750;48.746;2023-07-30T04:51:26;97948.03;;;23.57;63.57
78986;BME280;68384;55.750;48.746;2023-07-30T04:52:29;97956.44;;;23.65;63.50
78986;BME280;68384;55.750;48.746;2023-07-30T04:53:33;97956.44;;;23.65;63.92
78986;BME280;68384;55.750;48.746;2023-07-30T04:54:36;97952.72;;;23.69;63.94
78986;BME280;68384;55.750;48.746;2023-07-30T04:55:40;97956.63;;;23.79;63.81
78986;BME280;68384;55.750;48.746;2023-07-30T04:56:43;97958.81;;;23.88;63.44
78986;BME280;68384;55.750;48.746;2023-07-30T04:57:47;97951.25;;;23.98;63.09
78986;BME280;68384;55.750;48.746;2023-07-30T04:58:49;97958.81;;;24.05;62.78
78986;BME280;68384;55.750;48.746;2023-07-30T04:59:53;97958.16;;;24.17;62.61
78986;BME280;68384;55.750;48.746;2023-07-30T05:00:56;97948.97;;;24.24;62.31
78986;BME280;68384;55.750;48.746;2023-07-30T05:02:00;97950.25;;;24.33;61.57
78986;BME280;68384;55.750;48.746;2023-07-30T05:03:03;97954.84;;;24.47;61.15
78986;BME280;68384;55.750;48.746;2023-07-30T05:04:08;97961.53;;;24.54;60.80
78986;BME280;68384;55.750;48.746;2023-07-30T05:05:11;97960.41;;;24.58;60.12
78986;BME280;68384;55.750;48.746;2023-07-30T05:06:15;97978.81;;;24.61;59.44
78986;BME280;68384;55.750;48.746;2023-07-30T05:07:19;97972.25;;;24.68;59.75
78986;BME280;68384;55.750;48.746;2023-07-30T05:08:21;97974.38;;;24.77;59.19
78986;BME280;68384;55.750;48.746;2023-07-30T05:09:25;97972.09;;;24.86;58.84
78986;BME280;68384;55.750;48.746;2023-07-30T05:10:28;97971.41;;;24.99;58.29
78986;BME280;68384;55.750;48.746;2023-07-30T05:11:32;97976.22;;;25.08;58.48
78986;BME280;68384;55.750;48.746;2023-07-30T05:12:35;97971.47;;;25.14;58.21
78986;BME280;68384;55.750;48.746;2023-07-30T05:13:39;97972.91;;;25.20;58.17
78986;BME280;68384;55.750;48.746;2023-07-30T05:14:42;97969.81;;;25.27;58.39
78986;BME280;68384;55.750;48.746;2023-07-30T05:15:46;97967.59;;;25.35;58.40
78986;BME280;68384;55.750;48.746;2023-07-30T05:16:49;97962.28;;;25.35;58.72
78986;BME280;68384;55.750;48.746;2023-07-30T05:17:53;97959.81;;;25.32;58.42
78986;BME280;68384;55.750;48.746;2023-07-30T05:18:56;97964.19;;;25.33;57.90
78986;BME280;68384;55.750;48.746;2023-07-30T05:20:01;97965.09;;;25.32;58.22
78986;BME280;68384;55.750;48.746;2023-07-30T05:21:05;97958.34;;;25.27;58.30
78986;BME280;68384;55.750;48.746;2023-07-30T05:22:08;97961.09;;;25.25;58.79
78986;BME280;68384;55.750;48.746;2023-07-30T05:23:11;97959.38;;;25.24;59.08
78986;BME280;68384;55.750;48.746;2023-07-30T05:24:15;97961.44;;;25.19;59.43
78986;BME280;68384;55.750;48.746;2023-07-30T05:25:18;97967.16;;;25.12;59.48
78986;BME280;68384;55.750;48.746;2023-07-30T05:26:22;97964.91;;;25.04;59.69
78986;BME280;68384;55.750;48.746;2023-07-30T05:27:25;97966.97;;;24.99;59.62
78986;BME280;68384;55.750;48.746;2023-07-30T05:28:31;97969.88;;;24.95;59.72
78986;BME280;68384;55.750;48.746;2023-07-30T05:29:35;97975.78;;;24.84;60.52
78986;BME280;68384;55.750;48.746;2023-07-30T05:30:39;97981.09;;;24.84;60.49
78986;BME280;68384;55.750;48.746;2023-07-30T05:31:42;97978.34;;;24.85;60.45
78986;BME280;68384;55.750;48.746;2023-07-30T05:32:46;97979.34;;;24.83;60.22
78986;BME280;68384;55.750;48.746;2023-07-30T05:33:49;97975.78;;;24.84;60.38